Time;durP1;ratioP1;P1;durP2;ratioP2;P2;SDS_P1;SDS_P2;PMS_P1;PMS_P2;Temp;Humidity;BMP_temperature;BMP_pressure;BME280_temperature;BME280_humidity;BME280_pressure;Samples;Min_cycle;Max_cycle;Signal;HPM_P1;HPM_P2
2022/07/24 00:00:27;;;;;;;34.70;11.40;;;;;;;18.75;100.00;98331.38;5058598;28;20195;-59
2022/07/24 00:02:52;;;;;;;30.80;11.30;;;;;;;18.79;100.00;98340.78;5061300;28;20044;-58
2022/07/24 00:05:18;;;;;;;31.85;11.32;;;;;;;18.53;100.00;98342.56;5060407;28;20099;-58
2022/07/24 00:07:43;;;;;;;36.35;11.82;;;;;;;18.66;100.00;98340.78;5059326;28;20031;-58
2022/07/24 00:10:09;;;;;;;42.58;11.20;;;;;;;19.18;100.00;98333.69;5060289;28;20093;-58
2022/07/24 00:12:35;;;;;;;41.83;12.00;;;;;;;19.02;100.00;98340.06;5057686;28;20089;-58
2022/07/24 00:15:01;;;;;;;38.88;11.73;;;;;;;18.80;100.00;98340.69;5058169;28;20024;-58
2022/07/24 00:17:26;;;;;;;30.05;10.55;;;;;;;19.10;100.00;98333.38;5059657;28;20051;-60
2022/07/24 00:19:51;;;;;;;39.65;11.65;;;;;;;18.91;100.00;98337.31;5060055;28;20026;-58
2022/07/24 00:22:17;;;;;;;33.25;12.32;;;;;;;18.62;100.00;98334.88;5058878;28;20109;-58
2022/07/24 00:24:42;;;;;;;31.33;11.43;;;;;;;18.53;100.00;98346.06;5061411;28;20036;-61
2022/07/24 00:27:08;;;;;;;35.28;11.95;;;;;;;18.81;100.00;98334.47;5060493;28;20123;-61
2022/07/24 00:29:33;;;;;;;29.83;10.88;;;;;;;18.95;100.00;98345.88;5060810;28;20097;-61
2022/07/24 00:31:58;;;;;;;32.90;10.52;;;;;;;19.15;100.00;98336.53;5059493;28;20052;-58
2022/07/24 00:34:24;;;;;;;29.88;11.00;;;;;;;18.83;100.00;98337.84;5060833;28;20061;-58
2022/07/24 00:36:49;;;;;;;43.92;12.32;;;;;;;18.53;100.00;98351.34;5060107;28;20040;-59
2022/07/24 00:39:15;;;;;;;33.28;11.25;;;;;;;18.66;100.00;98348.72;5060679;28;20028;-59
2022/07/24 00:41:40;;;;;;;28.38;11.25;;;;;;;18.72;100.00;98347.44;5059897;28;20037;-60
2022/07/24 00:44:07;;;;;;;27.85;10.63;;;;;;;18.88;100.00;98343.66;5061722;28;20025;-60
2022/07/24 00:46:34;;;;;;;29.90;11.30;;;;;;;18.72;100.00;98342.16;5060321;28;20040;-60
2022/07/24 00:49:00;;;;;;;32.50;12.07;;;;;;;18.34;100.00;98348.25;5060550;28;20043;-59
2022/07/24 00:51:25;;;;;;;33.85;11.68;;;;;;;18.45;100.00;98351.00;5059737;28;20041;-62
2022/07/24 00:53:51;;;;;;;34.65;11.30;;;;;;;18.43;100.00;98342.34;5060689;28;20037;-60
2022/07/24 00:56:17;;;;;;;30.65;10.55;;;;;;;18.58;100.00;98345.75;5060483;28;20145;-59
2022/07/24 00:58:44;;;;;;;28.98;10.68;;;;;;;18.24;100.00;98348.88;5060548;28;20031;-61
2022/07/24 01:01:09;;;;;;;38.60;12.63;;;;;;;18.55;100.00;98341.53;5059857;28;20056;-59
2022/07/24 01:03:35;;;;;;;33.38;11.25;;;;;;;18.68;100.00;98344.16;5043693;28;20821;-59
2022/07/24 01:06:00;;;;;;;35.65;12.50;;;;;;;18.51;100.00;98342.69;5060571;28;20036;-60
2022/07/24 01:08:26;;;;;;;37.13;12.55;;;;;;;18.43;100.00;98342.34;5060339;28;20052;-59
2022/07/24 01:10:51;;;;;;;27.25;10.30;;;;;;;18.71;100.00;98338.69;5059481;28;20041;-59
2022/07/24 01:13:17;;;;;;;36.05;12.20;;;;;;;18.76;100.00;98333.06;5060688;28;20616;-60
2022/07/24 01:15:42;;;;;;;29.75;11.02;;;;;;;18.92;100.00;98339.00;5060390;28;20094;-59
2022/07/24 01:18:07;;;;;;;28.30;10.98;;;;;;;18.40;100.00;98348.69;5059984;28;20123;-59
2022/07/24 01:20:37;;;;;;;32.20;11.93;;;;;;;18.25;100.00;98339.16;5059460;28;20055;-60
2022/07/24 01:23:03;;;;;;;36.08;12.07;;;;;;;18.55;100.00;98343.31;5058784;28;20045;-60
2022/07/24 01:25:28;;;;;;;38.50;12.27;;;;;;;18.43;100.00;98342.34;5060624;28;20519;-60
2022/07/24 01:27:54;;;;;;;32.42;12.10;;;;;;;18.34;100.00;98342.97;5059635;28;20027;-59
2022/07/24 01:30:20;;;;;;;35.60;12.73;;;;;;;18.48;100.00;98335.81;5055965;28;20033;-59
2022/07/24 01:32:45;;;;;;;37.03;11.50;;;;;;;18.60;100.00;98328.84;5060110;28;20497;-59
2022/07/24 01:35:10;;;;;;;32.35;11.65;;;;;;;18.57;100.00;98326.41;5064418;28;20573;-62
2022/07/24 01:37:36;;;;;;;40.38;12.13;;;;;;;18.43;100.00;98340.53;5064488;28;20028;-59
2022/07/24 01:40:01;;;;;;;44.28;13.00;;;;;;;18.62;100.00;98337.50;5064436;28;20056;-61
2022/07/24 01:42:27;;;;;;;36.65;11.68;;;;;;;18.51;100.00;98345.34;5062923;28;20098;-59
2022/07/24 01:44:52;;;;;;;32.28;12.07;;;;;;;18.38;100.00;98345.31;5064902;28;20909;-60
2022/07/24 01:47:18;;;;;;;39.80;12.45;;;;;;;18.26;100.00;98349.59;5063519;28;20148;-59
2022/07/24 01:49:43;;;;;;;36.25;12.35;;;;;;;18.30;100.00;98347.59;5064521;28;20036;-61
2022/07/24 01:52:09;;;;;;;37.78;12.60;;;;;;;18.26;100.00;98349.59;5060418;28;20859;-59
2022/07/24 01:54:34;;;;;;;27.23;11.60;;;;;;;17.99;100.00;98352.28;5062115;28;20052;-62
2022/07/24 01:57:00;;;;;;;31.35;11.50;;;;;;;18.42;100.00;98345.97;5063327;28;20601;-60
2022/07/24 01:59:25;;;;;;;33.05;12.15;;;;;;;17.89;100.00;98349.41;5063329;28;20017;-59
2022/07/24 02:01:50;;;;;;;72.72;15.30;;;;;;;17.78;100.00;98351.88;5060543;28;20133;-60
2022/07/24 02:04:16;;;;;;;27.80;11.20;;;;;;;18.00;100.00;98355.78;5062270;28;20063;-59
2022/07/24 02:06:41;;;;;;;35.17;12.48;;;;;;;17.84;100.00;98351.47;5061819;28;20044;-59
2022/07/24 02:09:06;;;;;;;31.90;12.23;;;;;;;17.65;100.00;98356.25;5062832;28;20029;-60
2022/07/24 02:11:32;;;;;;;35.08;12.52;;;;;;;17.78;100.00;98354.50;5063602;28;20036;-59
2022/07/24 02:13:59;;;;;;;35.80;11.38;;;;;;;18.00;100.00;98359.25;5064128;28;20054;-59
2022/07/24 02:16:25;;;;;;;34.25;12.23;;;;;;;18.11;100.00;98348.00;5062940;28;20040;-59
2022/07/24 02:18:50;;;;;;;30.88;11.25;;;;;;;18.22;100.00;98345.50;5063328;28;20817;-59
2022/07/24 02:21:16;;;;;;;32.47;12.30;;;;;;;18.02;100.00;98356.53;5061698;28;20049;-60
2022/07/24 02:23:41;;;;;;;31.65;12.27;;;;;;;18.04;100.00;98352.00;5063694;28;20707;-60
2022/07/24 02:26:07;;;;;;;29.98;10.77;;;;;;;18.27;100.00;98346.03;5062655;28;20044;-59
2022/07/24 02:28:32;;;;;;;31.10;11.98;;;;;;;18.22;100.00;98348.13;5063299;28;20178;-59
2022/07/24 02:30:57;;;;;;;35.97;12.13;;;;;;;18.02;100.00;98345.97;5062146;28;20064;-59
2022/07/24 02:33:23;;;;;;;32.33;12.57;;;;;;;17.93;100.00;98355.34;5063317;28;20044;-59
2022/07/24 02:35:48;;;;;;;27.58;11.93;;;;;;;17.89;100.00;98354.69;5062960;28;20519;-59
2022/07/24 02:38:14;;;;;;;31.83;11.55;;;;;;;18.30;100.00;98344.97;5062685;28;20108;-59
2022/07/24 02:40:39;;;;;;;31.63;10.82;;;;;;;18.54;100.00;98338.97;5061858;28;20651;-60
2022/07/24 02:43:05;;;;;;;31.02;11.00;;;;;;;18.77;100.00;98334.78;5062432;28;20413;-59
2022/07/24 02:45:30;;;;;;;38.42;12.60;;;;;;;18.05;100.00;98343.97;5061902;28;20097;-59
2022/07/24 02:47:57;;;;;;;32.33;12.95;;;;;;;17.79;100.00;98353.56;5063334;28;20025;-59
2022/07/24 02:50:24;;;;;;;37.50;11.68;;;;;;;18.18;100.00;98359.84;5061302;28;20123;-60
2022/07/24 02:52:50;;;;;;;33.22;12.30;;;;;;;18.09;100.00;98349.91;5062117;28;20029;-59
2022/07/24 02:55:16;;;;;;;31.10;12.30;;;;;;;17.80;100.00;98368.44;5062486;28;20114;-59
2022/07/24 02:57:42;;;;;;;32.55;11.40;;;;;;;18.13;100.00;98367.22;5061990;28;20043;-59
2022/07/24 03:00:11;;;;;;;49.10;13.65;;;;;;;18.04;100.00;98373.09;5061436;28;20035;-58
2022/07/24 03:02:37;;;;;;;30.30;10.85;;;;;;;18.38;100.00;98365.56;5062977;28;20054;-61
2022/07/24 03:05:03;;;;;;;33.83;11.98;;;;;;;18.08;100.00;98359.59;5063561;28;20390;-59
2022/07/24 03:07:29;;;;;;;34.63;12.90;;;;;;;17.22;100.00;98374.78;5060735;28;20056;-58
2022/07/24 03:09:54;;;;;;;36.90;13.43;;;;;;;17.45;100.00;98381.25;5062802;28;20033;-58
2022/07/24 03:12:20;;;;;;;32.17;12.80;;;;;;;17.47;100.00;98374.94;5062706;28;20192;-59
2022/07/24 03:14:45;;;;;;;38.08;13.35;;;;;;;17.22;100.00;98382.69;5062439;28;20537;-60
2022/07/24 03:17:10;;;;;;;31.95;13.00;;;;;;;17.19;100.00;98380.25;5061945;28;20086;-60
2022/07/24 03:19:36;;;;;;;34.88;13.43;;;;;;;17.33;100.00;98390.75;5062974;28;20033;-60
2022/07/24 03:22:01;;;;;;;31.88;12.88;;;;;;;17.50;100.00;98382.66;5061223;28;20052;-59
2022/07/24 03:24:27;;;;;;;36.65;13.60;;;;;;;17.26;100.00;98386.81;5062847;28;20111;-58
2022/07/24 03:26:52;;;;;;;35.10;13.50;;;;;;;17.44;100.00;98385.69;5061839;28;20028;-59
2022/07/24 03:29:18;;;;;;;35.58;13.23;;;;;;;17.53;100.00;98387.75;5061827;28;20036;-59
2022/07/24 03:31:43;;;;;;;35.15;13.35;;;;;;;17.49;100.00;98380.94;5060577;28;20059;-60
2022/07/24 03:34:09;;;;;;;33.20;13.88;;;;;;;17.46;100.00;98372.38;5062291;28;20039;-59
2022/07/24 03:36:34;;;;;;;34.55;13.23;;;;;;;17.54;100.00;98373.59;5061951;28;20405;-58
2022/07/24 03:38:59;;;;;;;39.88;14.00;;;;;;;17.23;100.00;98373.84;5062146;28;20024;-57
2022/07/24 03:41:25;;;;;;;31.27;13.35;;;;;;;17.60;100.00;98368.88;5060801;28;20033;-58
2022/07/24 03:43:50;;;;;;;39.28;14.20;;;;;;;17.79;100.00;98366.78;5061606;28;20032;-57
2022/07/24 03:46:16;;;;;;;38.10;14.27;;;;;;;17.19;100.00;98377.63;5060926;28;20029;-58
2022/07/24 03:48:41;;;;;;;31.67;13.65;;;;;;;17.23;100.00;98376.47;5061456;28;20399;-58
2022/07/24 03:51:06;;;;;;;37.13;13.30;;;;;;;17.79;100.00;98369.41;5061361;28;20036;-59
2022/07/24 03:53:32;;;;;;;33.33;13.60;;;;;;;17.39;100.00;98377.22;5061825;28;20067;-60
2022/07/24 03:55:57;;;;;;;27.75;12.70;;;;;;;17.33;100.00;98377.59;5061777;28;20123;-61
2022/07/24 03:58:23;;;;;;;37.55;13.77;;;;;;;17.17;100.00;98387.38;5061363;28;20023;-59
2022/07/24 04:00:48;;;;;;;33.20;12.90;;;;;;;17.20;100.00;98376.66;5061405;28;20081;-59
2022/07/24 04:03:13;;;;;;;34.28;13.23;;;;;;;16.99;100.00;98384.13;5061098;28;20876;-60
2022/07/24 04:05:39;;;;;;;34.30;13.32;;;;;;;17.71;100.00;98382.22;5061927;28;20093;-59
2022/07/24 04:08:04;;;;;;;30.25;12.93;;;;;;;17.63;100.00;98371.34;5061913;28;20053;-61
2022/07/24 04:10:30;;;;;;;34.47;12.50;;;;;;;17.58;100.00;98381.31;5060701;28;20037;-60
2022/07/24 04:12:55;;;;;;;32.35;13.00;;;;;;;17.56;100.00;98380.59;5061952;28;20029;-59
2022/07/24 04:15:20;;;;;;;35.95;13.23;;;;;;;17.92;100.00;98380.88;5061051;28;20032;-59
2022/07/24 04:17:46;;;;;;;33.13;12.98;;;;;;;17.94;100.00;98377.28;5061196;28;20081;-59
2022/07/24 04:20:12;;;;;;;43.15;13.93;;;;;;;18.13;100.00;98385.69;5061107;28;20028;-58
2022/07/24 04:22:37;;;;;;;39.20;14.15;;;;;;;18.24;100.00;98375.28;5061490;28;20032;-57
2022/07/24 04:25:03;;;;;;;31.50;12.25;;;;;;;18.26;100.00;98373.38;5061593;28;20036;-57
2022/07/24 04:27:29;;;;;;;36.70;13.00;;;;;;;17.86;100.00;98380.41;5060247;28;20013;-59
2022/07/24 04:29:54;;;;;;;31.90;11.75;;;;;;;18.49;100.00;98386.84;5060912;28;20035;-57
2022/07/24 04:32:19;;;;;;;32.22;12.75;;;;;;;18.36;100.00;98373.63;5060709;28;20044;-58
2022/07/24 04:34:45;;;;;;;35.65;13.60;;;;;;;18.45;100.00;98373.00;5061240;28;20034;-58
2022/07/24 04:37:11;;;;;;;38.88;13.35;;;;;;;18.43;100.00;98374.88;5059854;28;20053;-58
2022/07/24 04:39:37;;;;;;;33.58;12.68;;;;;;;18.41;100.00;98375.94;5061309;28;20056;-59
2022/07/24 04:42:02;;;;;;;37.38;13.13;;;;;;;19.17;100.00;98363.72;5060714;28;20040;-59
2022/07/24 04:44:28;;;;;;;37.83;12.90;;;;;;;18.97;100.00;98368.63;5061278;28;20036;-59
2022/07/24 04:46:53;;;;;;;34.97;12.70;;;;;;;18.88;100.00;98370.09;5060821;28;20107;-60
2022/07/24 04:49:18;;;;;;;33.03;12.45;;;;;;;18.98;100.00;98370.28;5061125;28;20068;-59
2022/07/24 04:51:44;;;;;;;31.52;12.75;;;;;;;18.67;100.00;98377.69;5060391;28;20524;-60
2022/07/24 04:54:09;;;;;;;29.33;12.00;;;;;;;19.30;100.00;98377.78;5061829;28;20032;-60
2022/07/24 04:56:34;;;;;;;31.55;12.60;;;;;;;19.28;100.00;98369.13;5061133;28;20091;-60
2022/07/24 04:59:01;;;;;;;33.13;12.20;;;;;;;18.97;100.00;98373.91;5061429;28;20063;-61
2022/07/24 05:01:28;;;;;;;31.38;12.75;;;;;;;19.41;100.00;98367.28;5060674;28;20032;-62
2022/07/24 05:03:56;;;;;;;33.90;12.45;;;;;;;19.67;100.00;98371.63;5060772;28;20079;-60
2022/07/24 05:06:22;;;;;;;26.52;12.50;;;;;;;19.39;100.00;98376.25;5060724;28;20137;-62
2022/07/24 05:08:47;;;;;;;31.15;12.10;;;;;;;19.41;100.00;98377.88;5064290;28;20038;-61
2022/07/24 05:11:13;;;;;;;35.03;12.85;;;;;;;20.03;100.00;98362.84;5063421;28;20107;-60
2022/07/24 05:13:38;;;;;;;30.55;11.68;;;;;;;19.43;100.00;98368.00;5064907;28;20466;-60
2022/07/24 05:16:04;;;;;;;27.95;12.18;;;;;;;20.21;100.00;98361.47;5064920;28;20886;-59
2022/07/24 05:18:29;;;;;;;27.63;11.70;;;;;;;20.41;100.00;98362.63;5064623;28;20020;-59
2022/07/24 05:20:55;;;;;;;31.02;11.52;;;;;;;20.35;100.00;98370.22;5064335;28;20127;-61
2022/07/24 05:23:20;;;;;;;28.35;12.65;;;;;;;20.47;100.00;98356.00;5064930;28;20100;-59
2022/07/24 05:25:45;;;;;;;26.77;11.93;;;;;;;20.44;100.00;98356.25;5064534;28;20037;-59
2022/07/24 05:28:11;;;;;;;38.05;13.02;;;;;;;20.10;100.00;98361.44;5063780;28;20136;-60
2022/07/24 05:30:36;;;;;;;23.77;10.93;;;;;;;20.49;100.00;98356.72;5064312;28;20037;-60
2022/07/24 05:33:01;;;;;;;29.50;12.23;;;;;;;20.53;100.00;98358.22;5064442;28;20028;-61
2022/07/24 05:35:27;;;;;;;32.05;11.40;;;;;;;20.70;100.00;98356.94;5064433;28;20054;-59
2022/07/24 05:37:52;;;;;;;24.55;11.27;;;;;;;21.57;100.00;98353.69;5064523;28;20033;-59
2022/07/24 05:40:17;;;;;;;33.85;12.85;;;;;;;21.54;100.00;98348.63;5063328;28;20028;-62
2022/07/24 05:42:43;;;;;;;34.15;11.85;;;;;;;21.03;100.00;98357.09;5063912;28;21066;-62
2022/07/24 05:45:08;;;;;;;25.95;10.38;;;;;;;22.62;100.00;98335.28;5064019;28;20028;-62
2022/07/24 05:47:37;;;;;;;30.00;11.00;;;;;;;24.55;100.00;98331.56;5064616;28;20027;-60
2022/07/24 05:50:06;;;;;;;32.28;11.23;;;;;;;25.54;100.00;98315.88;5064335;28;20490;-60
2022/07/24 05:52:32;;;;;;;32.65;11.40;;;;;;;25.80;100.00;98325.81;5063102;28;20040;-63
2022/07/24 05:54:57;;;;;;;25.55;10.30;;;;;;;27.98;100.00;98323.13;5064703;28;20560;-60
2022/07/24 05:57:22;;;;;;;26.60;10.40;;;;;;;27.84;100.00;98328.09;5063739;28;20604;-59
2022/07/24 05:59:48;;;;;;;23.42;9.95;;;;;;;30.08;89.24;98313.97;5064258;28;20024;-60
2022/07/24 06:02:13;;;;;;;18.45;9.15;;;;;;;31.67;72.91;98322.75;5063472;28;20032;-63
2022/07/24 06:04:41;;;;;;;22.45;9.95;;;;;;;31.50;72.86;98316.75;5063885;28;20036;-61
2022/07/24 06:07:09;;;;;;;21.65;9.68;;;;;;;31.65;69.07;98319.41;5064244;28;20038;-62
2022/07/24 06:09:35;;;;;;;18.88;9.20;;;;;;;32.37;63.01;98318.50;5064338;28;20486;-61
2022/07/24 06:12:00;;;;;;;18.73;9.15;;;;;;;31.35;69.61;98324.00;5062668;28;20048;-60
2022/07/24 06:14:25;;;;;;;16.77;8.48;;;;;;;31.78;63.34;98318.72;5063907;28;20028;-63
2022/07/24 06:16:51;;;;;;;17.08;8.18;;;;;;;33.23;59.15;98323.69;5063427;28;20037;-61
2022/07/24 06:19:16;;;;;;;16.17;8.05;;;;;;;33.57;55.77;98313.00;5062520;28;20030;-60
2022/07/24 06:21:41;;;;;;;17.00;8.27;;;;;;;33.91;52.62;98313.94;5063030;28;20048;-60
2022/07/24 06:24:07;;;;;;;17.60;8.15;;;;;;;33.68;54.38;98314.31;5063520;28;20123;-60
2022/07/24 06:26:32;;;;;;;12.23;7.47;;;;;;;33.64;52.19;98318.41;5064178;28;20744;-61
2022/07/24 06:28:58;;;;;;;18.50;8.73;;;;;;;32.56;53.81;98316.13;5063157;28;20054;-60
2022/07/24 06:31:23;;;;;;;14.80;7.80;;;;;;;33.29;54.61;98313.06;5062330;28;20044;-61
2022/07/24 06:33:48;;;;;;;15.40;7.68;;;;;;;34.26;49.27;98306.53;5063225;28;20024;-60
2022/07/24 06:36:14;;;;;;;15.90;7.70;;;;;;;34.24;49.15;98305.88;5063035;28;20127;-62
2022/07/24 06:38:39;;;;;;;14.68;7.35;;;;;;;35.68;46.37;98300.56;5063457;28;20035;-60
2022/07/24 06:41:04;;;;;;;17.58;8.13;;;;;;;35.70;46.32;98303.91;5061567;28;20037;-60
2022/07/24 06:43:30;;;;;;;14.00;7.50;;;;;;;35.95;44.93;98308.53;5063478;28;20055;-61
2022/07/24 06:45:55;;;;;;;15.45;7.55;;;;;;;33.68;49.43;98308.91;5062918;28;20098;-61
2022/07/24 06:48:21;;;;;;;13.65;7.43;;;;;;;34.53;48.81;98306.50;5063334;28;20021;-64
2022/07/24 06:50:46;;;;;;;13.40;7.40;;;;;;;33.88;48.67;98298.94;5062209;28;20098;-61
2022/07/24 06:53:11;;;;;;;15.27;7.55;;;;;;;33.02;51.88;98304.81;5063431;28;20028;-61
2022/07/24 06:55:37;;;;;;;15.77;7.97;;;;;;;32.88;54.35;98311.19;5063330;28;20494;-60
2022/07/24 06:58:02;;;;;;;18.38;7.90;;;;;;;31.90;60.33;98307.22;5063061;28;20059;-60
2022/07/24 07:00:27;;;;;;;15.85;8.52;;;;;;;30.66;63.38;98304.41;5061873;28;20035;-61
2022/07/24 07:02:53;;;;;;;18.40;8.52;;;;;;;31.16;66.74;98301.19;5063244;28;20024;-62
2022/07/24 07:05:18;;;;;;;18.90;8.05;;;;;;;29.99;77.07;98297.06;5062321;28;20039;-62
2022/07/24 07:07:44;;;;;;;13.10;8.18;;;;;;;29.21;84.01;98318.47;5061551;28;20021;-60
2022/07/24 07:10:10;;;;;;;23.05;9.45;;;;;;;29.16;89.00;98311.94;5061872;28;20031;-60
2022/07/24 07:12:36;;;;;;;19.15;9.25;;;;;;;29.31;88.50;98312.06;5062631;28;20036;-60
2022/07/24 07:15:02;;;;;;;18.02;9.35;;;;;;;29.75;84.39;98306.97;5062954;28;20032;-60
2022/07/24 07:17:27;;;;;;;17.60;8.48;;;;;;;28.74;92.91;98313.88;5061683;28;20045;-61
2022/07/24 07:19:53;;;;;;;21.00;8.95;;;;;;;30.49;78.77;98302.88;5062754;28;20061;-60
2022/07/24 07:22:18;;;;;;;16.95;8.32;;;;;;;29.76;84.70;98303.28;5061281;28;20068;-60
2022/07/24 07:24:44;;;;;;;19.25;8.68;;;;;;;28.93;95.34;98309.13;5061802;28;20024;-60
2022/07/24 07:27:09;;;;;;;18.48;8.68;;;;;;;30.43;80.75;98309.81;5061146;28;20124;-60
2022/07/24 07:29:34;;;;;;;16.48;8.55;;;;;;;30.53;84.13;98318.47;5061811;28;20490;-62
2022/07/24 07:32:00;;;;;;;15.95;8.18;;;;;;;33.32;65.02;98312.69;5059736;28;20040;-60
2022/07/24 07:34:26;;;;;;;18.35;8.05;;;;;;;34.69;58.06;98306.09;5062399;28;20024;-62
2022/07/24 07:36:52;;;;;;;17.92;8.38;;;;;;;34.99;51.58;98305.59;5061235;28;20033;-63
2022/07/24 07:39:17;;;;;;;15.23;7.60;;;;;;;36.70;46.94;98313.22;5061377;28;20035;-61
2022/07/24 07:41:42;;;;;;;14.25;7.30;;;;;;;36.42;47.35;98314.50;5061183;28;20033;-62
2022/07/24 07:44:08;;;;;;;14.75;7.30;;;;;;;35.29;50.37;98305.09;5063115;28;20024;-63
2022/07/24 07:46:33;;;;;;;15.10;7.47;;;;;;;35.27;48.65;98299.91;5059676;28;20039;-62
2022/07/24 07:48:59;;;;;;;18.88;8.20;;;;;;;34.16;49.61;98312.28;5059511;28;20082;-59
2022/07/24 07:51:24;;;;;;;12.52;7.28;;;;;;;37.47;43.66;98310.06;5061014;28;20549;-60
2022/07/24 07:53:50;;;;;;;16.35;7.50;;;;;;;35.90;44.62;98301.06;5061038;28;20028;-60
2022/07/24 07:56:15;;;;;;;11.80;6.88;;;;;;;38.69;39.26;98300.69;5061548;28;20047;-64
2022/07/24 07:58:41;;;;;;;14.20;7.15;;;;;;;37.68;39.24;98301.44;5061489;28;20516;-64
2022/07/24 08:01:06;;;;;;;15.65;8.00;;;;;;;37.11;40.67;98301.69;5060109;28;20036;-63
2022/07/24 08:03:31;;;;;;;13.60;6.90;;;;;;;36.48;41.38;98302.72;5062083;28;20401;-62
2022/07/24 08:05:57;;;;;;;11.65;6.75;;;;;;;39.23;37.24;98301.34;5061217;28;20556;-60
2022/07/24 08:08:23;;;;;;;12.95;6.82;;;;;;;39.10;38.09;98301.63;5057160;28;20074;-61
2022/07/24 08:10:48;;;;;;;13.63;7.18;;;;;;;36.62;41.45;98298.00;5059899;28;20220;-62
2022/07/24 08:13:14;;;;;;;14.32;7.38;;;;;;;36.68;39.96;98293.59;5061634;28;20385;-61
2022/07/24 08:15:41;;;;;;;14.20;7.50;;;;;;;32.93;46.64;98293.34;5060768;28;20041;-62
2022/07/24 08:18:06;;;;;;;12.73;7.00;;;;;;;32.90;49.31;98299.16;5061714;28;20032;-62
2022/07/24 08:20:32;;;;;;;16.98;7.68;;;;;;;34.13;45.65;98296.47;5059526;28;20043;-61
2022/07/24 08:22:57;;;;;;;15.90;8.35;;;;;;;35.67;43.77;98293.44;5061574;28;20030;-61
2022/07/24 08:25:23;;;;;;;14.60;7.35;;;;;;;35.25;42.75;98293.84;5060704;28;20375;-60
2022/07/24 08:27:48;;;;;;;14.43;7.63;;;;;;;35.12;44.29;98291.16;5061346;28;20028;-60
2022/07/24 08:30:14;;;;;;;13.90;6.97;;;;;;;34.50;44.97;98279.81;5060013;28;20024;-61
2022/07/24 08:32:40;;;;;;;14.50;7.00;;;;;;;36.06;40.51;98280.69;5060914;28;20210;-61
2022/07/24 08:35:06;;;;;;;16.17;7.03;;;;;;;36.35;39.05;98278.41;5061024;28;20032;-61
2022/07/24 08:37:39;;;;;;;14.63;7.55;;;;;;;35.98;39.58;98281.78;5060769;28;20037;-62
2022/07/24 08:40:05;;;;;;;14.63;7.25;;;;;;;37.11;37.76;98289.97;5060801;28;20569;-61
2022/07/24 08:42:31;;;;;;;13.15;6.82;;;;;;;38.37;35.79;98284.69;5059314;28;20064;-59
2022/07/24 08:44:56;;;;;;;11.50;6.30;;;;;;;38.14;37.07;98283.59;5060747;28;20449;-65
2022/07/24 08:47:24;;;;;;;10.98;6.30;;;;;;;39.79;34.53;98276.25;5060272;28;20997;-63
2022/07/24 08:49:53;;;;;;;10.48;6.00;;;;;;;38.94;34.60;98276.72;5061399;28;20021;-59
2022/07/24 08:52:21;;;;;;;9.93;5.68;;;;;;;39.82;33.33;98276.56;5075192;28;20064;-59
2022/07/24 08:54:47;;;;;;;10.23;5.90;;;;;;;37.40;34.75;98278.31;5060828;28;20068;-59
2022/07/24 08:57:12;;;;;;;12.88;5.68;;;;;;;38.93;34.04;98272.34;5060884;28;20136;-60
2022/07/24 08:59:38;;;;;;;9.38;5.50;;;;;;;37.83;33.15;98272.94;5061422;28;20029;-60
2022/07/24 09:02:04;;;;;;;10.57;5.22;;;;;;;36.89;34.43;98268.69;5059552;28;20045;-60
2022/07/24 09:04:53;;;;;;;12.30;5.43;;;;;;;35.78;35.77;98275.69;5057853;28;20032;-60
2022/07/24 09:07:24;;;;;;;13.27;6.05;;;;;;;35.31;38.57;98270.50;5050580;28;20418;-61
2022/07/24 09:09:58;;;;;;;;;;;;;;;37.11;34.13;98269.06;5061390;28;20404;-60
2022/07/24 09:12:24;;;;;;;9.25;5.22;;;;;;;38.54;31.90;98266.53;5059845;28;20322;-60
2022/07/24 09:14:50;;;;;;;9.93;5.50;;;;;;;38.06;34.54;98267.56;5061634;28;20032;-62
2022/07/24 09:17:19;;;;;;;14.60;6.05;;;;;;;38.98;31.24;98255.25;5060013;28;20037;-61
2022/07/24 09:19:48;;;;;;;11.50;5.15;;;;;;;39.24;31.82;98253.91;5060886;28;20031;-63
2022/07/24 09:22:27;;;;;;;10.02;4.88;;;;;;;39.31;30.23;98254.59;5059380;28;20048;-60
2022/07/24 09:25:15;;;;;;;14.43;5.80;;;;;;;36.78;33.66;98253.97;5061099;28;20024;-59
2022/07/24 09:27:54;;;;;;;10.23;5.57;;;;;;;38.94;33.01;98254.91;5060615;28;20119;-62
2022/07/24 09:30:25;;;;;;;12.45;5.60;;;;;;;38.50;30.66;98254.47;5059543;28;20794;-61
2022/07/24 09:33:12;;;;;;;9.95;5.30;;;;;;;39.02;30.31;98253.72;5060594;28;20048;-60
2022/07/24 09:35:37;;;;;;;8.73;4.85;;;;;;;39.84;30.67;98240.84;5061795;28;20035;-62
2022/07/24 09:38:05;;;;;;;12.85;5.78;;;;;;;40.65;29.76;98246.78;5059523;28;20032;-61
2022/07/24 09:40:33;;;;;;;14.90;5.88;;;;;;;36.55;34.28;98246.44;5058383;28;20521;-61
2022/07/24 09:43:20;;;;;;;10.52;5.35;;;;;;;35.60;35.01;98243.81;5060660;28;20029;-60
2022/07/24 09:45:57;;;;;;;9.23;5.53;;;;;;;35.16;35.36;98240.06;5059703;28;20510;-60
2022/07/24 09:48:25;;;;;;;12.95;5.85;;;;;;;34.88;37.20;98243.94;5059759;28;20024;-60
2022/07/24 09:50:52;;;;;;;11.68;5.90;;;;;;;35.43;35.46;98238.91;5059240;28;20677;-60
2022/07/24 09:53:19;;;;;;;17.63;6.10;;;;;;;34.52;37.33;98239.81;5062272;28;20024;-62
2022/07/24 09:55:55;;;;;;;9.63;5.18;;;;;;;33.92;37.92;98243.38;5062362;28;20161;-59
2022/07/24 09:58:21;;;;;;;10.90;5.78;;;;;;;32.82;40.21;98240.69;5063769;28;20035;-60
2022/07/24 10:00:47;;;;;;;10.80;5.75;;;;;;;32.52;42.66;98241.97;5062300;28;20036;-59
2022/07/24 10:03:18;;;;;;;14.88;6.15;;;;;;;32.22;40.78;98239.47;5064450;28;20027;-60
2022/07/24 10:05:47;;;;;;;14.40;6.20;;;;;;;33.38;38.75;98238.88;5063904;28;20041;-59
2022/07/24 10:08:14;;;;;;;14.45;6.25;;;;;;;35.22;36.20;98234.66;5064336;28;20020;-61
2022/07/24 10:10:41;;;;;;;13.57;6.10;;;;;;;35.10;36.49;98237.16;5063294;28;20040;-60
2022/07/24 10:13:08;;;;;;;12.63;5.97;;;;;;;35.79;35.86;98234.75;5064138;28;20029;-60
2022/07/24 10:15:39;;;;;;;14.43;5.75;;;;;;;37.79;33.67;98237.19;5063368;28;20029;-59
2022/07/24 10:18:15;;;;;;;;;;;;;;;36.20;34.37;98225.25;5052329;28;20028;-60
2022/07/24 10:20:43;;;;;;;14.52;6.18;;;;;;;34.66;34.90;98229.78;5062931;28;19916;-59
2022/07/24 10:23:14;;;;;;;11.15;5.50;;;;;;;34.72;33.75;98218.13;5062738;28;20017;-62
2022/07/24 10:25:53;;;;;;;11.90;5.55;;;;;;;37.27;32.43;98221.38;5062797;28;20041;-60
2022/07/24 10:28:37;;;;;;;11.73;5.53;;;;;;;36.47;32.70;98223.13;5063230;28;20449;-59
2022/07/24 10:31:05;;;;;;;13.15;5.63;;;;;;;34.72;32.30;98208.16;5061927;28;20090;-59
2022/07/24 10:33:31;;;;;;;12.30;5.38;;;;;;;36.91;31.66;98217.66;5063353;28;20036;-59
2022/07/24 10:36:00;;;;;;;11.13;5.20;;;;;;;38.76;31.02;98223.16;5062539;28;20048;-60
2022/07/24 10:38:35;;;;;;;11.68;5.53;;;;;;;37.80;29.73;98212.47;5061824;28;20546;-62
2022/07/24 10:41:08;;;;;;;14.35;5.68;;;;;;;36.48;30.53;98213.06;5053894;28;20062;-60
2022/07/24 10:43:33;;;;;;;10.43;5.25;;;;;;;38.92;29.59;98198.97;5060324;28;20024;-60
2022/07/24 10:45:59;;;;;;;11.02;5.10;;;;;;;37.71;30.54;98202.16;5059291;28;20561;-61
2022/07/24 10:48:26;;;;;;;11.50;4.90;;;;;;;35.42;32.46;98204.72;5061802;28;20074;-60
2022/07/24 10:51:07;;;;;;;12.00;5.00;;;;;;;36.45;33.05;98199.97;5051278;28;20306;-60
2022/07/24 10:53:38;;;;;;;10.68;5.20;;;;;;;35.63;32.58;98187.25;5061483;28;20079;-60
2022/07/24 10:56:23;;;;;;;11.02;5.13;;;;;;;37.27;31.08;98190.66;5059027;28;20048;-62
2022/07/24 10:58:51;;;;;;;12.27;5.40;;;;;;;37.48;31.13;98186.56;5058620;28;20063;-60
2022/07/24 11:01:47;;;;;;;15.70;5.75;;;;;;;36.10;31.62;98195.06;5060916;28;20040;-60
2022/07/24 11:04:18;;;;;;;15.35;5.65;;;;;;;36.87;30.03;98186.53;5059277;28;20028;-61
2022/07/24 11:07:06;;;;;;;10.32;5.15;;;;;;;37.70;30.71;98179.56;5059896;28;20083;-63
2022/07/24 11:09:58;;;;;;;11.10;5.28;;;;;;;37.56;30.93;98183.53;5059552;28;20070;-62
2022/07/24 11:12:32;;;;;;;10.48;5.15;;;;;;;38.74;29.44;98189.06;5061030;28;20131;-64
2022/07/24 11:17:48;;;;;;;11.15;5.07;;;;;;;38.90;31.51;98173.84;5061881;28;20048;-61